sensor_id;sensor_type;location;lat;lon;timestamp;pressure;altitude;pressure_sealevel;temperature;humidity
48200;BME280;33990;44.602;10.976;2023-01-31T00:01:42;101423.25;;;19.21;38.63
48200;BME280;33990;44.602;10.976;2023-01-31T00:04:10;101434.00;;;19.21;38.76
48200;BME280;33990;44.602;10.976;2023-01-31T00:06:41;101429.63;;;19.20;38.63
48200;BME280;33990;44.602;10.976;2023-01-31T00:09:10;101432.28;;;19.20;38.43
48200;BME280;33990;44.602;10.976;2023-01-31T00:11:38;101435.94;;;19.19;38.69
48200;BME280;33990;44.602;10.976;2023-01-31T00:14:06;101437.75;;;19.19;38.54
48200;BME280;33990;44.602;10.976;2023-01-31T00:16:33;101454.84;;;19.18;38.36
48200;BME280;33990;44.602;10.976;2023-01-31T00:19:02;101462.91;;;19.18;38.45
48200;BME280;33990;44.602;10.976;2023-01-31T00:21:30;101458.38;;;19.18;38.42
48200;BME280;33990;44.602;10.976;2023-01-31T00:23:58;101454.97;;;19.16;38.37
48200;BME280;33990;44.602;10.976;2023-01-31T00:26:28;101458.59;;;19.15;38.41
48200;BME280;33990;44.602;10.976;2023-01-31T00:28:58;101466.66;;;19.15;38.46
48200;BME280;33990;44.602;10.976;2023-01-31T00:31:27;101472.03;;;19.15;38.26
48200;BME280;33990;44.602;10.976;2023-01-31T00:33:55;101468.50;;;19.15;38.35
48200;BME280;33990;44.602;10.976;2023-01-31T00:36:25;101473.84;;;19.15;38.28
48200;BME280;33990;44.602;10.976;2023-01-31T00:38:56;101470.31;;;19.14;38.43
48200;BME280;33990;44.602;10.976;2023-01-31T00:41:24;101478.50;;;19.13;38.44
48200;BME280;33990;44.602;10.976;2023-01-31T00:43:52;101472.28;;;19.12;38.31
48200;BME280;33990;44.602;10.976;2023-01-31T00:46:20;101479.44;;;19.12;38.35
48200;BME280;33990;44.602;10.976;2023-01-31T00:48:48;101485.69;;;19.12;38.40
48200;BME280;33990;44.602;10.976;2023-01-31T00:51:16;101496.53;;;19.11;38.50
48200;BME280;33990;44.602;10.976;2023-01-31T00:53:45;101498.38;;;19.10;38.65
48200;BME280;33990;44.602;10.976;2023-01-31T00:56:14;101506.41;;;19.10;38.76
48200;BME280;33990;44.602;10.976;2023-01-31T00:58:42;101501.91;;;19.11;38.77
48200;BME280;33990;44.602;10.976;2023-01-31T01:01:10;101510.06;;;19.09;38.82
48200;BME280;33990;44.602;10.976;2023-01-31T01:03:39;101503.84;;;19.09;38.80
48200;BME280;33990;44.602;10.976;2023-01-31T01:06:07;101498.50;;;19.09;38.74
48200;BME280;33990;44.602;10.976;2023-01-31T01:08:36;101504.72;;;19.09;38.78
48200;BME280;33990;44.602;10.976;2023-01-31T01:11:05;101509.22;;;19.09;38.79
48200;BME280;33990;44.602;10.976;2023-01-31T01:13:33;101517.28;;;19.09;38.62
48200;BME280;33990;44.602;10.976;2023-01-31T01:16:06;101519.09;;;19.08;38.66
48200;BME280;33990;44.602;10.976;2023-01-31T01:18:34;101526.28;;;19.08;38.83
48200;BME280;33990;44.602;10.976;2023-01-31T01:21:12;101517.38;;;19.07;38.78
48200;BME280;33990;44.602;10.976;2023-01-31T01:23:42;101522.72;;;19.07;38.76
48200;BME280;33990;44.602;10.976;2023-01-31T01:26:24;101525.41;;;19.07;38.77
48200;BME280;33990;44.602;10.976;2023-01-31T01:28:53;101522.72;;;19.07;38.76
48200;BME280;33990;44.602;10.976;2023-01-31T01:31:21;101523.72;;;19.06;38.75
48200;BME280;33990;44.602;10.976;2023-01-31T01:33:49;101522.00;;;19.05;38.85
48200;BME280;33990;44.602;10.976;2023-01-31T01:36:17;101522.84;;;19.06;38.88
48200;BME280;33990;44.602;10.976;2023-01-31T01:38:48;101524.69;;;19.05;38.98
48200;BME280;33990;44.602;10.976;2023-01-31T01:41:16;101522.09;;;19.03;38.82
48200;BME280;33990;44.602;10.976;2023-01-31T01:43:49;101527.47;;;19.03;38.97
48200;BME280;33990;44.602;10.976;2023-01-31T01:46:23;101538.19;;;19.03;39.01
48200;BME280;33990;44.602;10.976;2023-01-31T01:51:54;101534.66;;;19.03;38.90
48200;BME280;33990;44.602;10.976;2023-01-31T01:54:30;101537.34;;;19.03;38.94
48200;BME280;33990;44.602;10.976;2023-01-31T01:57:04;101538.31;;;19.02;38.93
48200;BME280;33990;44.602;10.976;2023-01-31T01:59:44;101546.50;;;19.00;39.03
48200;BME280;33990;44.602;10.976;2023-01-31T02:02:14;101548.34;;;19.00;39.00
48200;BME280;33990;44.602;10.976;2023-01-31T02:04:43;101546.50;;;19.00;39.01
48200;BME280;33990;44.602;10.976;2023-01-31T02:07:12;101542.00;;;19.01;39.14
48200;BME280;33990;44.602;10.976;2023-01-31T02:10:00;101543.81;;;19.00;39.20
48200;BME280;33990;44.602;10.976;2023-01-31T02:12:29;101551.00;;;19.00;39.12
48200;BME280;33990;44.602;10.976;2023-01-31T02:14:58;101550.13;;;18.99;39.21
48200;BME280;33990;44.602;10.976;2023-01-31T02:17:26;101555.50;;;18.99;39.33
48200;BME280;33990;44.602;10.976;2023-01-31T02:21:04;101571.59;;;18.99;39.16
48200;BME280;33990;44.602;10.976;2023-01-31T02:34:41;101558.44;;;18.96;39.20
48200;BME280;33990;44.602;10.976;2023-01-31T02:37:28;101560.13;;;18.97;39.05
48200;BME280;33990;44.602;10.976;2023-01-31T02:40:25;101561.97;;;18.97;39.07
48200;BME280;33990;44.602;10.976;2023-01-31T02:51:07;101569.25;;;18.95;39.08
48200;BME280;33990;44.602;10.976;2023-01-31T02:53:47;101571.94;;;18.95;39.25
48200;BME280;33990;44.602;10.976;2023-01-31T02:59:08;101563.03;;;18.94;39.05
48200;BME280;33990;44.602;10.976;2023-01-31T03:01:42;101570.22;;;18.94;39.12
48200;BME280;33990;44.602;10.976;2023-01-31T03:04:12;101572.91;;;18.94;38.97
48200;BME280;33990;44.602;10.976;2023-01-31T03:09:39;101568.41;;;18.94;38.99
48200;BME280;33990;44.602;10.976;2023-01-31T03:15:02;101569.47;;;18.92;39.00
48200;BME280;33990;44.602;10.976;2023-01-31T03:18:05;101568.53;;;18.93;38.90
48200;BME280;33990;44.602;10.976;2023-01-31T03:20:51;101576.66;;;18.91;39.18
48200;BME280;33990;44.602;10.976;2023-01-31T03:23:27;101576.66;;;18.91;39.20
48200;BME280;33990;44.602;10.976;2023-01-31T03:25:58;101578.50;;;18.91;39.28
48200;BME280;33990;44.602;10.976;2023-01-31T03:28:29;101584.72;;;18.91;39.07
48200;BME280;33990;44.602;10.976;2023-01-31T03:31:10;101585.69;;;18.90;39.18
48200;BME280;33990;44.602;10.976;2023-01-31T03:33:42;101592.88;;;18.90;39.23
48200;BME280;33990;44.602;10.976;2023-01-31T03:42:24;101587.63;;;18.88;39.17
48200;BME280;33990;44.602;10.976;2023-01-31T03:50:03;101613.59;;;18.88;39.21
48200;BME280;33990;44.602;10.976;2023-01-31T03:52:35;101617.25;;;18.87;39.18
48200;BME280;33990;44.602;10.976;2023-01-31T03:55:14;101607.50;;;18.86;39.07
48200;BME280;33990;44.602;10.976;2023-01-31T03:57:45;101612.84;;;18.86;39.12
48200;BME280;33990;44.602;10.976;2023-01-31T04:00:15;101612.00;;;18.85;39.13
48200;BME280;33990;44.602;10.976;2023-01-31T04:03:00;101608.47;;;18.85;39.08
48200;BME280;33990;44.602;10.976;2023-01-31T04:05:32;101610.16;;;18.86;39.19
48200;BME280;33990;44.602;10.976;2023-01-31T04:08:02;101603.94;;;18.85;39.26
48200;BME280;33990;44.602;10.976;2023-01-31T04:10:32;101603.09;;;18.85;39.26
48200;BME280;33990;44.602;10.976;2023-01-31T04:12:59;101610.16;;;18.86;39.12
48200;BME280;33990;44.602;10.976;2023-01-31T04:15:27;101606.72;;;18.84;39.20
48200;BME280;33990;44.602;10.976;2023-01-31T04:17:55;101601.34;;;18.84;39.17
48200;BME280;33990;44.602;10.976;2023-01-31T04:20:22;101606.72;;;18.84;39.25
48200;BME280;33990;44.602;10.976;2023-01-31T04:22:49;101606.72;;;18.84;39.10
48200;BME280;33990;44.602;10.976;2023-01-31T04:25:17;101599.66;;;18.83;39.26
48200;BME280;33990;44.602;10.976;2023-01-31T04:27:45;101596.88;;;18.84;39.26
48200;BME280;33990;44.602;10.976;2023-01-31T04:30:12;101590.63;;;18.84;39.16
48200;BME280;33990;44.602;10.976;2023-01-31T04:32:39;101593.31;;;18.84;39.11
48200;BME280;33990;44.602;10.976;2023-01-31T04:35:07;101597.81;;;18.83;39.14
48200;BME280;33990;44.602;10.976;2023-01-31T04:37:35;101599.66;;;18.83;39.11
48200;BME280;33990;44.602;10.976;2023-01-31T04:40:02;101596.97;;;18.83;39.15
48200;BME280;33990;44.602;10.976;2023-01-31T04:42:30;101606.84;;;18.82;39.10
48200;BME280;33990;44.602;10.976;2023-01-31T04:44:57;101600.63;;;18.82;39.17
48200;BME280;33990;44.602;10.976;2023-01-31T04:47:25;101592.56;;;18.82;39.05
48200;BME280;33990;44.602;10.976;2023-01-31T04:49:53;101596.22;;;18.81;38.97
48200;BME280;33990;44.602;10.976;2023-01-31T04:52:20;101595.38;;;18.80;39.12
48200;BME280;33990;44.602;10.976;2023-01-31T04:54:47;101594.41;;;18.81;39.07
48200;BME280;33990;44.602;10.976;2023-01-31T04:57:14;101590.88;;;18.81;39.16
48200;BME280;33990;44.602;10.976;2023-01-31T04:59:42;101586.44;;;18.80;39.04
48200;BME280;33990;44.602;10.976;2023-01-31T05:02:09;101597.19;;;18.80;39.12
48200;BME280;33990;44.602;10.976;2023-01-31T05:04:36;101592.78;;;18.78;39.01
48200;BME280;33990;44.602;10.976;2023-01-31T05:07:04;101591.81;;;18.80;39.21
48200;BME280;33990;44.602;10.976;2023-01-31T05:09:31;101597.28;;;18.78;39.10
48200;BME280;33990;44.602;10.976;2023-01-31T05:11:58;101612.53;;;18.77;39.00
48200;BME280;33990;44.602;10.976;2023-01-31T05:14:26;101605.47;;;18.76;38.96
48200;BME280;33990;44.602;10.976;2023-01-31T05:16:54;101607.19;;;18.77;39.11
48200;BME280;33990;44.602;10.976;2023-01-31T05:19:21;101612.66;;;18.76;39.07
48200;BME280;33990;44.602;10.976;2023-01-31T05:21:48;101617.13;;;18.75;39.20
48200;BME280;33990;44.602;10.976;2023-01-31T05:24:27;101629.59;;;18.76;38.99
48200;BME280;33990;44.602;10.976;2023-01-31T05:26:56;101620.72;;;18.76;39.08
48200;BME280;33990;44.602;10.976;2023-01-31T05:29:25;101625.19;;;18.75;39.10
48200;BME280;33990;44.602;10.976;2023-01-31T05:31:55;101624.34;;;18.75;39.05
48200;BME280;33990;44.602;10.976;2023-01-31T05:34:24;101635.91;;;18.75;39.03
48200;BME280;33990;44.602;10.976;2023-01-31T05:36:52;101636.88;;;18.74;39.12
48200;BME280;33990;44.602;10.976;2023-01-31T05:39:20;101626.28;;;18.73;39.01
48200;BME280;33990;44.602;10.976;2023-01-31T05:41:47;101626.28;;;18.73;39.19
48200;BME280;33990;44.602;10.976;2023-01-31T05:44:15;101632.50;;;18.73;39.11
48200;BME280;33990;44.602;10.976;2023-01-31T05:46:42;101630.78;;;18.72;39.38
48200;BME280;33990;44.602;10.976;2023-01-31T05:49:10;101639.78;;;18.71;39.25
48200;BME280;33990;44.602;10.976;2023-01-31T05:51:38;101644.22;;;18.72;39.19
48200;BME280;33990;44.602;10.976;2023-01-31T05:54:06;101637.09;;;18.71;39.27
48200;BME280;33990;44.602;10.976;2023-01-31T05:56:33;101639.78;;;18.71;39.33
48200;BME280;33990;44.602;10.976;2023-01-31T05:59:01;101634.41;;;18.71;39.31
48200;BME280;33990;44.602;10.976;2023-01-31T06:01:29;101643.44;;;18.70;39.18
48200;BME280;33990;44.602;10.976;2023-01-31T06:03:57;101648.81;;;18.70;39.10
48200;BME280;33990;44.602;10.976;2023-01-31T06:06:24;101654.16;;;18.70;39.33
48200;BME280;33990;44.602;10.976;2023-01-31T06:08:51;101645.28;;;18.70;39.44
48200;BME280;33990;44.602;10.976;2023-01-31T06:11:19;101661.34;;;18.70;39.25
48200;BME280;33990;44.602;10.976;2023-01-31T06:13:46;101668.53;;;18.69;39.15
48200;BME280;33990;44.602;10.976;2023-01-31T06:16:15;101686.44;;;18.69;39.13
48200;BME280;33990;44.602;10.976;2023-01-31T06:18:42;101674.84;;;18.68;39.13
48200;BME280;33990;44.602;10.976;2023-01-31T06:21:10;101679.25;;;18.69;39.08
48200;BME280;33990;44.602;10.976;2023-01-31T06:23:38;101676.69;;;18.68;39.10
48200;BME280;33990;44.602;10.976;2023-01-31T06:26:06;101681.16;;;18.67;39.01
48200;BME280;33990;44.602;10.976;2023-01-31T06:28:35;101686.53;;;18.67;38.92
48200;BME280;33990;44.602;10.976;2023-01-31T06:31:10;101698.22;;;18.66;39.10
48200;BME280;33990;44.602;10.976;2023-01-31T06:33:38;101707.25;;;18.65;39.14
48200;BME280;33990;44.602;10.976;2023-01-31T06:36:14;101700.06;;;18.66;39.01
48200;BME280;33990;44.602;10.976;2023-01-31T06:38:51;101706.28;;;18.66;39.01
48200;BME280;33990;44.602;10.976;2023-01-31T06:41:19;101715.28;;;18.65;38.99
48200;BME280;33990;44.602;10.976;2023-01-31T06:43:47;101714.44;;;18.65;38.98
48200;BME280;33990;44.602;10.976;2023-01-31T06:46:15;101724.31;;;18.64;38.91
48200;BME280;33990;44.602;10.976;2023-01-31T06:48:42;101730.53;;;18.65;39.03
48200;BME280;33990;44.602;10.976;2023-01-31T06:51:10;101736.75;;;18.65;38.92
48200;BME280;33990;44.602;10.976;2023-01-31T06:53:37;101745.78;;;18.64;39.17
48200;BME280;33990;44.602;10.976;2023-01-31T06:56:05;101752.97;;;18.64;39.08
48200;BME280;33990;44.602;10.976;2023-01-31T06:58:32;101754.75;;;18.63;39.11
48200;BME280;33990;44.602;10.976;2023-01-31T07:01:04;101749.38;;;18.63;39.17
48200;BME280;33990;44.602;10.976;2023-01-31T07:03:32;101750.28;;;18.64;39.24
48200;BME280;33990;44.602;10.976;2023-01-31T07:05:59;101753.03;;;18.62;39.16
48200;BME280;33990;44.602;10.976;2023-01-31T07:08:27;101763.78;;;18.62;39.18
48200;BME280;33990;44.602;10.976;2023-01-31T07:10:54;101775.34;;;18.63;39.31
48200;BME280;33990;44.602;10.976;2023-01-31T07:13:22;101784.38;;;18.62;39.27
48200;BME280;33990;44.602;10.976;2023-01-31T07:15:50;101784.38;;;18.62;39.18
48200;BME280;33990;44.602;10.976;2023-01-31T07:18:17;101787.06;;;18.62;39.27
48200;BME280;33990;44.602;10.976;2023-01-31T07:20:45;101784.38;;;18.62;39.28
48200;BME280;33990;44.602;10.976;2023-01-31T07:23:12;101793.38;;;18.61;39.23
48200;BME280;33990;44.602;10.976;2023-01-31T07:25:39;101800.56;;;18.60;39.33
48200;BME280;33990;44.602;10.976;2023-01-31T07:28:07;101808.63;;;18.60;38.97
48200;BME280;33990;44.602;10.976;2023-01-31T07:30:34;101816.66;;;18.60;39.30
48200;BME280;33990;44.602;10.976;2023-01-31T07:33:01;101817.53;;;18.61;39.31
48200;BME280;33990;44.602;10.976;2023-01-31T07:35:29;101820.28;;;18.59;39.22
48200;BME280;33990;44.602;10.976;2023-01-31T07:37:57;101821.25;;;18.58;39.35
48200;BME280;33990;44.602;10.976;2023-01-31T07:40:24;101815.03;;;18.58;39.29
48200;BME280;33990;44.602;10.976;2023-01-31T07:42:56;101825.78;;;18.58;39.33
48200;BME280;33990;44.602;10.976;2023-01-31T07:45:24;101837.34;;;18.58;39.46
48200;BME280;33990;44.602;10.976;2023-01-31T07:47:51;101838.31;;;18.57;39.43
48200;BME280;33990;44.602;10.976;2023-01-31T07:50:19;101838.31;;;18.57;39.50
48200;BME280;33990;44.602;10.976;2023-01-31T07:52:46;101841.00;;;18.57;39.46
48200;BME280;33990;44.602;10.976;2023-01-31T07:55:15;101833.81;;;18.58;39.60
48200;BME280;33990;44.602;10.976;2023-01-31T07:57:42;101830.28;;;18.57;39.29
48200;BME280;33990;44.602;10.976;2023-01-31T08:00:10;101830.28;;;18.57;39.67
48200;BME280;33990;44.602;10.976;2023-01-31T08:02:57;101824.91;;;18.57;39.59
48200;BME280;33990;44.602;10.976;2023-01-31T08:05:45;101841.88;;;18.58;39.61
48200;BME280;33990;44.602;10.976;2023-01-31T08:08:12;101844.53;;;18.58;39.60
48200;BME280;33990;44.602;10.976;2023-01-31T08:10:40;101850.03;;;18.56;39.68
48200;BME280;33990;44.602;10.976;2023-01-31T08:13:07;101850.88;;;18.57;39.68
48200;BME280;33990;44.602;10.976;2023-01-31T08:15:37;101862.47;;;18.57;39.30
48200;BME280;33990;44.602;10.976;2023-01-31T08:18:04;101856.13;;;18.58;39.71
48200;BME280;33990;44.602;10.976;2023-01-31T08:20:33;101857.94;;;18.58;39.68
48200;BME280;33990;44.602;10.976;2023-01-31T08:23:00;101854.41;;;18.57;39.68
48200;BME280;33990;44.602;10.976;2023-01-31T08:25:27;101850.03;;;18.56;39.73
48200;BME280;33990;44.602;10.976;2023-01-31T08:27:57;101848.28;;;18.55;39.86
48200;BME280;33990;44.602;10.976;2023-01-31T08:30:24;101850.03;;;18.56;39.90
48200;BME280;33990;44.602;10.976;2023-01-31T08:32:52;101865.03;;;18.59;40.12
48200;BME280;33990;44.602;10.976;2023-01-31T08:35:19;101874.16;;;18.56;38.03
48200;BME280;33990;44.602;10.976;2023-01-31T08:37:47;101867.03;;;18.55;39.76
48200;BME280;33990;44.602;10.976;2023-01-31T08:40:14;101874.03;;;18.58;40.02
48200;BME280;33990;44.602;10.976;2023-01-31T08:42:42;101869.44;;;18.60;39.97
48200;BME280;33990;44.602;10.976;2023-01-31T08:45:09;101863.97;;;18.61;39.95
48200;BME280;33990;44.602;10.976;2023-01-31T08:47:36;101869.16;;;18.64;39.65
48200;BME280;33990;44.602;10.976;2023-01-31T08:50:05;101864.63;;;18.65;39.30
48200;BME280;33990;44.602;10.976;2023-01-31T08:52:54;101856.47;;;18.66;39.43
48200;BME280;33990;44.602;10.976;2023-01-31T08:55:23;101848.34;;;18.68;39.65
48200;BME280;33990;44.602;10.976;2023-01-31T08:57:51;101861.63;;;18.69;39.46
48200;BME280;33990;44.602;10.976;2023-01-31T09:00:27;101868.66;;;18.72;39.45
48200;BME280;33990;44.602;10.976;2023-01-31T09:02:56;101864.03;;;18.74;39.25
48200;BME280;33990;44.602;10.976;2023-01-31T09:05:26;101864.91;;;18.74;39.42
48200;BME280;33990;44.602;10.976;2023-01-31T09:07:54;101881.84;;;18.75;39.28
48200;BME280;33990;44.602;10.976;2023-01-31T09:10:21;101866.59;;;18.75;39.29
48200;BME280;33990;44.602;10.976;2023-01-31T09:12:50;101871.88;;;18.77;39.48
48200;BME280;33990;44.602;10.976;2023-01-31T09:15:17;101870.91;;;18.78;39.51
48200;BME280;33990;44.602;10.976;2023-01-31T09:17:45;101867.38;;;18.77;39.77
48200;BME280;33990;44.602;10.976;2023-01-31T09:20:12;101870.91;;;18.78;39.55
48200;BME280;33990;44.602;10.976;2023-01-31T09:22:40;101876.28;;;18.78;39.29
48200;BME280;33990;44.602;10.976;2023-01-31T09:25:08;101884.22;;;18.80;38.82
48200;BME280;33990;44.602;10.976;2023-01-31T09:27:36;101881.44;;;18.81;39.34
48200;BME280;33990;44.602;10.976;2023-01-31T09:30:06;101884.03;;;18.83;38.65
48200;BME280;33990;44.602;10.976;2023-01-31T09:32:34;101892.19;;;18.81;37.38
48200;BME280;33990;44.602;10.976;2023-01-31T09:35:03;101882.31;;;18.82;38.66
48200;BME280;33990;44.602;10.976;2023-01-31T09:37:30;101888.53;;;18.82;38.57
48200;BME280;33990;44.602;10.976;2023-01-31T09:39:58;101894.75;;;18.83;38.78
48200;BME280;33990;44.602;10.976;2023-01-31T09:42:29;101900.13;;;18.83;38.96
48200;BME280;33990;44.602;10.976;2023-01-31T09:45:00;101901.84;;;18.84;39.38
48200;BME280;33990;44.602;10.976;2023-01-31T09:47:46;101884.88;;;18.83;39.22
48200;BME280;33990;44.602;10.976;2023-01-31T09:52:48;101880.28;;;18.85;39.41
48200;BME280;33990;44.602;10.976;2023-01-31T09:55:17;101885.53;;;18.87;39.39
48200;BME280;33990;44.602;10.976;2023-01-31T09:58:06;101894.44;;;18.87;39.38
48200;BME280;33990;44.602;10.976;2023-01-31T10:00:45;101901.63;;;18.87;39.37
48200;BME280;33990;44.602;10.976;2023-01-31T10:08:43;101899.91;;;18.86;39.23
48200;BME280;33990;44.602;10.976;2023-01-31T10:11:21;101888.34;;;18.85;39.00
48200;BME280;33990;44.602;10.976;2023-01-31T10:13:59;101890.16;;;18.85;38.91
48200;BME280;33990;44.602;10.976;2023-01-31T10:19:32;101884.78;;;18.85;39.06
48200;BME280;33990;44.602;10.976;2023-01-31T10:22:07;101875.00;;;18.84;39.05
48200;BME280;33990;44.602;10.976;2023-01-31T10:24:47;101869.63;;;18.84;39.06
48200;BME280;33990;44.602;10.976;2023-01-31T10:29:54;101859.88;;;18.83;38.85
48200;BME280;33990;44.602;10.976;2023-01-31T10:32:31;101854.50;;;18.83;38.69
48200;BME280;33990;44.602;10.976;2023-01-31T10:35:04;101850.13;;;18.82;38.85
48200;BME280;33990;44.602;10.976;2023-01-31T10:37:44;101844.75;;;18.82;39.06
48200;BME280;33990;44.602;10.976;2023-01-31T10:40:36;101837.69;;;18.81;38.90
48200;BME280;33990;44.602;10.976;2023-01-31T10:45:40;101839.38;;;18.82;38.85
48200;BME280;33990;44.602;10.976;2023-01-31T10:48:22;101825.13;;;18.81;39.00
48200;BME280;33990;44.602;10.976;2023-01-31T10:56:32;101836.69;;;18.82;38.88
48200;BME280;33990;44.602;10.976;2023-01-31T10:59:06;101835.72;;;18.83;38.81
48200;BME280;33990;44.602;10.976;2023-01-31T11:01:36;101832.31;;;18.81;38.88
48200;BME280;33990;44.602;10.976;2023-01-31T11:06:52;101831.34;;;18.82;38.86
48200;BME280;33990;44.602;10.976;2023-01-31T11:09:21;101826.94;;;18.81;38.79
48200;BME280;33990;44.602;10.976;2023-01-31T11:11:58;101826.09;;;18.80;38.92
48200;BME280;33990;44.602;10.976;2023-01-31T11:14:26;101812.69;;;18.80;38.78
48200;BME280;33990;44.602;10.976;2023-01-31T11:16:59;101816.22;;;18.81;38.70
48200;BME280;33990;44.602;10.976;2023-01-31T11:21:59;101822.53;;;18.80;38.66
48200;BME280;33990;44.602;10.976;2023-01-31T11:24:30;101818.13;;;18.78;38.58
48200;BME280;33990;44.602;10.976;2023-01-31T11:27:05;101808.25;;;18.79;38.66
48200;BME280;33990;44.602;10.976;2023-01-31T11:29:37;101802.03;;;18.78;38.77
48200;BME280;33990;44.602;10.976;2023-01-31T11:32:16;101797.63;;;18.77;38.76
48200;BME280;33990;44.602;10.976;2023-01-31T11:38:35;101797.63;;;18.77;38.85
48200;BME280;33990;44.602;10.976;2023-01-31T11:40:43;101797.63;;;18.77;38.92
48200;BME280;33990;44.602;10.976;2023-01-31T11:45:46;101791.41;;;18.77;38.71
48200;BME280;33990;44.602;10.976;2023-01-31T11:48:25;101794.94;;;18.77;38.80
48200;BME280;33990;44.602;10.976;2023-01-31T11:51:00;101782.50;;;18.76;38.78
48200;BME280;33990;44.602;10.976;2023-01-31T11:53:38;101787.03;;;18.76;38.86
48200;BME280;33990;44.602;10.976;2023-01-31T11:56:17;101775.41;;;18.75;38.97
48200;BME280;33990;44.602;10.976;2023-01-31T11:58:48;101776.28;;;18.76;38.86
48200;BME280;33990;44.602;10.976;2023-01-31T12:01:20;101773.59;;;18.76;38.80
48200;BME280;33990;44.602;10.976;2023-01-31T12:04:00;101775.31;;;18.77;38.70
48200;BME280;33990;44.602;10.976;2023-01-31T12:06:36;101770.03;;;18.75;38.72
48200;BME280;33990;44.602;10.976;2023-01-31T12:09:17;101767.34;;;18.75;38.79
48200;BME280;33990;44.602;10.976;2023-01-31T12:11:53;101757.50;;;18.76;38.84
48200;BME280;33990;44.602;10.976;2023-01-31T12:14:22;101753.94;;;18.75;39.08
48200;BME280;33990;44.602;10.976;2023-01-31T12:16:53;101753.94;;;18.75;38.93
48200;BME280;33990;44.602;10.976;2023-01-31T12:36:10;101749.56;;;18.74;39.18
48200;BME280;33990;44.602;10.976;2023-01-31T12:44:44;101742.47;;;18.73;38.74
48200;BME280;33990;44.602;10.976;2023-01-31T12:57:37;101728.28;;;18.71;38.96
48200;BME280;33990;44.602;10.976;2023-01-31T13:02:41;101731.88;;;18.72;39.02
48200;BME280;33990;44.602;10.976;2023-01-31T13:08:13;101728.28;;;18.71;38.85
48200;BME280;33990;44.602;10.976;2023-01-31T13:10:46;101718.53;;;18.70;38.91
48200;BME280;33990;44.602;10.976;2023-01-31T13:13:25;101719.41;;;18.71;39.01
48200;BME280;33990;44.602;10.976;2023-01-31T13:16:23;101713.19;;;18.70;38.99
48200;BME280;33990;44.602;10.976;2023-01-31T13:18:53;101698.78;;;18.71;39.00
48200;BME280;33990;44.602;10.976;2023-01-31T13:21:24;101702.44;;;18.70;38.89
48200;BME280;33990;44.602;10.976;2023-01-31T13:24:08;101697.09;;;18.70;38.95
48200;BME280;33990;44.602;10.976;2023-01-31T13:26:42;101694.41;;;18.70;38.93
48200;BME280;33990;44.602;10.976;2023-01-31T13:29:31;101689.88;;;18.71;38.89
48200;BME280;33990;44.602;10.976;2023-01-31T13:32:03;101690.75;;;18.71;39.03
48200;BME280;33990;44.602;10.976;2023-01-31T13:35:13;101671.19;;;18.69;39.12
48200;BME280;33990;44.602;10.976;2023-01-31T13:37:44;101673.88;;;18.69;39.04
48200;BME280;33990;44.602;10.976;2023-01-31T13:42:40;101672.09;;;18.70;38.98
48200;BME280;33990;44.602;10.976;2023-01-31T13:45:07;101664.03;;;18.70;39.09
48200;BME280;33990;44.602;10.976;2023-01-31T13:47:45;101668.53;;;18.69;39.16
48200;BME280;33990;44.602;10.976;2023-01-31T13:52:59;101673.78;;;18.71;39.38
48200;BME280;33990;44.602;10.976;2023-01-31T13:55:47;101671.13;;;18.71;39.45
48200;BME280;33990;44.602;10.976;2023-01-31T13:58:27;101675.63;;;18.70;39.44
48200;BME280;33990;44.602;10.976;2023-01-31T14:01:03;101673.88;;;18.69;39.49
48200;BME280;33990;44.602;10.976;2023-01-31T14:09:44;101674.78;;;18.70;39.62
48200;BME280;33990;44.602;10.976;2023-01-31T14:14:50;101668.44;;;18.71;39.59
48200;BME280;33990;44.602;10.976;2023-01-31T14:22:37;101671.19;;;18.69;39.61
48200;BME280;33990;44.602;10.976;2023-01-31T14:30:31;101664.97;;;18.69;39.39
48200;BME280;33990;44.602;10.976;2023-01-31T14:35:42;101667.66;;;18.69;39.41
48200;BME280;33990;44.602;10.976;2023-01-31T14:50:16;101658.69;;;18.70;39.71
48200;BME280;33990;44.602;10.976;2023-01-31T14:58:25;101648.81;;;18.70;39.65
48200;BME280;33990;44.602;10.976;2023-01-31T15:00:58;101646.13;;;18.70;39.69
48200;BME280;33990;44.602;10.976;2023-01-31T15:03:30;101646.97;;;18.71;39.74
48200;BME280;33990;44.602;10.976;2023-01-31T15:08:40;101653.19;;;18.71;40.26
48200;BME280;33990;44.602;10.976;2023-01-31T15:14:31;101648.81;;;18.70;40.43
48200;BME280;33990;44.602;10.976;2023-01-31T15:17:11;101642.59;;;18.70;40.52
48200;BME280;33990;44.602;10.976;2023-01-31T15:20:16;101647.81;;;18.71;40.50
48200;BME280;33990;44.602;10.976;2023-01-31T15:22:45;101646.13;;;18.70;40.55
48200;BME280;33990;44.602;10.976;2023-01-31T15:25:42;101646.13;;;18.70;40.59
48200;BME280;33990;44.602;10.976;2023-01-31T15:28:16;101649.66;;;18.71;40.68
48200;BME280;33990;44.602;10.976;2023-01-31T15:30:45;101647.94;;;18.70;40.69
48200;BME280;33990;44.602;10.976;2023-01-31T15:33:23;101649.66;;;18.71;40.58
48200;BME280;33990;44.602;10.976;2023-01-31T15:43:44;101651.47;;;18.70;40.53
48200;BME280;33990;44.602;10.976;2023-01-31T15:46:28;101648.81;;;18.70;40.66
48200;BME280;33990;44.602;10.976;2023-01-31T15:48:58;101646.97;;;18.71;40.54
48200;BME280;33990;44.602;10.976;2023-01-31T15:51:26;101646.13;;;18.70;40.49
48200;BME280;33990;44.602;10.976;2023-01-31T15:54:02;101648.81;;;18.70;40.57
48200;BME280;33990;44.602;10.976;2023-01-31T15:56:35;101649.66;;;18.71;40.55